sensor_id;sensor_type;location;lat;lon;timestamp;P1;durP1;ratioP1;P2;durP2;ratioP2
11797;SDS011;5956;51.428;6.682;2023-04-06T00:01:43;13.13;;;10.13;;
11797;SDS011;5956;51.428;6.682;2023-04-06T00:04:09;10.63;;;9.30;;
11797;SDS011;5956;51.428;6.682;2023-04-06T00:06:36;10.33;;;8.90;;
11797;SDS011;5956;51.428;6.682;2023-04-06T00:09:02;12.13;;;9.70;;
11797;SDS011;5956;51.428;6.682;2023-04-06T00:11:29;11.33;;;9.00;;
11797;SDS011;5956;51.428;6.682;2023-04-06T00:13:57;10.03;;;8.77;;
11797;SDS011;5956;51.428;6.682;2023-04-06T00:16:23;11.87;;;9.30;;
11797;SDS011;5956;51.428;6.682;2023-04-06T00:18:50;14.10;;;9.90;;
11797;SDS011;5956;51.428;6.682;2023-04-06T00:21:16;13.90;;;10.07;;
11797;SDS011;5956;51.428;6.682;2023-04-06T00:23:43;11.77;;;9.53;;
11797;SDS011;5956;51.428;6.682;2023-04-06T00:26:09;13.40;;;10.37;;
11797;SDS011;5956;51.428;6.682;2023-04-06T00:28:36;18.57;;;11.27;;
11797;SDS011;5956;51.428;6.682;2023-04-06T00:31:04;15.50;;;11.03;;
11797;SDS011;5956;51.428;6.682;2023-04-06T00:33:30;13.73;;;11.07;;
11797;SDS011;5956;51.428;6.682;2023-04-06T00:35:57;18.67;;;11.77;;
11797;SDS011;5956;51.428;6.682;2023-04-06T00:38:24;12.60;;;10.27;;
11797;SDS011;5956;51.428;6.682;2023-04-06T00:40:51;15.87;;;11.63;;
11797;SDS011;5956;51.428;6.682;2023-04-06T00:43:17;15.30;;;11.73;;
11797;SDS011;5956;51.428;6.682;2023-04-06T00:45:44;13.47;;;11.00;;
11797;SDS011;5956;51.428;6.682;2023-04-06T00:48:12;11.67;;;9.97;;
11797;SDS011;5956;51.428;6.682;2023-04-06T00:50:38;10.47;;;8.90;;
11797;SDS011;5956;51.428;6.682;2023-04-06T00:53:05;11.67;;;9.17;;
11797;SDS011;5956;51.428;6.682;2023-04-06T00:55:31;14.23;;;9.90;;
11797;SDS011;5956;51.428;6.682;2023-04-06T00:57:58;10.20;;;9.20;;
11797;SDS011;5956;51.428;6.682;2023-04-06T01:00:25;13.47;;;10.87;;
11797;SDS011;5956;51.428;6.682;2023-04-06T01:02:52;11.43;;;9.90;;
11797;SDS011;5956;51.428;6.682;2023-04-06T01:05:20;11.50;;;10.30;;
11797;SDS011;5956;51.428;6.682;2023-04-06T01:07:46;15.13;;;10.07;;
11797;SDS011;5956;51.428;6.682;2023-04-06T01:10:22;12.57;;;10.63;;
11797;SDS011;5956;51.428;6.682;2023-04-06T01:12:48;16.63;;;11.23;;
11797;SDS011;5956;51.428;6.682;2023-04-06T01:15:15;16.47;;;10.70;;
11797;SDS011;5956;51.428;6.682;2023-04-06T01:17:41;13.10;;;11.13;;
11797;SDS011;5956;51.428;6.682;2023-04-06T01:20:08;13.77;;;10.73;;
11797;SDS011;5956;51.428;6.682;2023-04-06T01:22:36;12.60;;;10.37;;
11797;SDS011;5956;51.428;6.682;2023-04-06T01:25:02;16.23;;;11.30;;
11797;SDS011;5956;51.428;6.682;2023-04-06T01:27:29;14.70;;;10.23;;
11797;SDS011;5956;51.428;6.682;2023-04-06T01:29:55;13.53;;;11.20;;
11797;SDS011;5956;51.428;6.682;2023-04-06T01:32:22;13.03;;;11.13;;
11797;SDS011;5956;51.428;6.682;2023-04-06T01:34:48;11.13;;;9.90;;
11797;SDS011;5956;51.428;6.682;2023-04-06T01:37:15;12.03;;;10.50;;
11797;SDS011;5956;51.428;6.682;2023-04-06T01:39:43;10.70;;;9.63;;
11797;SDS011;5956;51.428;6.682;2023-04-06T01:42:09;11.30;;;10.00;;
11797;SDS011;5956;51.428;6.682;2023-04-06T01:44:36;12.67;;;10.40;;
11797;SDS011;5956;51.428;6.682;2023-04-06T01:47:02;12.50;;;10.13;;
11797;SDS011;5956;51.428;6.682;2023-04-06T01:49:29;12.83;;;10.80;;
11797;SDS011;5956;51.428;6.682;2023-04-06T01:51:55;12.03;;;10.47;;
11797;SDS011;5956;51.428;6.682;2023-04-06T01:54:22;11.63;;;10.43;;
11797;SDS011;5956;51.428;6.682;2023-04-06T01:56:50;11.83;;;10.23;;
11797;SDS011;5956;51.428;6.682;2023-04-06T01:59:17;14.30;;;10.80;;
11797;SDS011;5956;51.428;6.682;2023-04-06T02:01:44;11.43;;;9.90;;
11797;SDS011;5956;51.428;6.682;2023-04-06T02:04:10;14.87;;;10.63;;
11797;SDS011;5956;51.428;6.682;2023-04-06T02:06:38;13.67;;;10.60;;
11797;SDS011;5956;51.428;6.682;2023-04-06T02:09:05;11.37;;;10.17;;
11797;SDS011;5956;51.428;6.682;2023-04-06T02:11:31;14.33;;;10.07;;
11797;SDS011;5956;51.428;6.682;2023-04-06T02:13:59;11.70;;;10.40;;
11797;SDS011;5956;51.428;6.682;2023-04-06T02:16:26;12.50;;;10.67;;
11797;SDS011;5956;51.428;6.682;2023-04-06T02:18:53;12.93;;;10.17;;
11797;SDS011;5956;51.428;6.682;2023-04-06T02:21:19;14.70;;;10.33;;
11797;SDS011;5956;51.428;6.682;2023-04-06T02:23:45;11.80;;;10.53;;
11797;SDS011;5956;51.428;6.682;2023-04-06T02:26:12;11.30;;;9.80;;
11797;SDS011;5956;51.428;6.682;2023-04-06T02:28:38;12.73;;;10.33;;
11797;SDS011;5956;51.428;6.682;2023-04-06T02:31:07;12.13;;;10.50;;
11797;SDS011;5956;51.428;6.682;2023-04-06T02:33:33;11.80;;;10.43;;
11797;SDS011;5956;51.428;6.682;2023-04-06T02:35:59;13.40;;;10.33;;
11797;SDS011;5956;51.428;6.682;2023-04-06T02:38:26;12.80;;;10.20;;
11797;SDS011;5956;51.428;6.682;2023-04-06T02:40:52;13.47;;;10.50;;
11797;SDS011;5956;51.428;6.682;2023-04-06T02:43:19;12.60;;;9.13;;
11797;SDS011;5956;51.428;6.682;2023-04-06T02:45:45;11.20;;;9.63;;
11797;SDS011;5956;51.428;6.682;2023-04-06T02:48:13;10.50;;;9.50;;
11797;SDS011;5956;51.428;6.682;2023-04-06T02:50:40;10.77;;;9.57;;
11797;SDS011;5956;51.428;6.682;2023-04-06T02:53:06;10.23;;;9.17;;
11797;SDS011;5956;51.428;6.682;2023-04-06T02:55:33;10.90;;;9.37;;
11797;SDS011;5956;51.428;6.682;2023-04-06T02:57:59;11.60;;;9.70;;
11797;SDS011;5956;51.428;6.682;2023-04-06T03:00:26;13.10;;;10.43;;
11797;SDS011;5956;51.428;6.682;2023-04-06T03:02:52;11.23;;;10.07;;
11797;SDS011;5956;51.428;6.682;2023-04-06T03:05:20;12.00;;;8.90;;
11797;SDS011;5956;51.428;6.682;2023-04-06T03:07:47;11.33;;;10.13;;
11797;SDS011;5956;51.428;6.682;2023-04-06T03:10:13;15.50;;;10.30;;
11797;SDS011;5956;51.428;6.682;2023-04-06T03:12:40;12.77;;;10.57;;
11797;SDS011;5956;51.428;6.682;2023-04-06T03:15:07;15.03;;;11.07;;
11797;SDS011;5956;51.428;6.682;2023-04-06T03:17:33;12.20;;;10.60;;
11797;SDS011;5956;51.428;6.682;2023-04-06T03:20:00;13.97;;;10.73;;
11797;SDS011;5956;51.428;6.682;2023-04-06T03:22:28;14.00;;;10.83;;
11797;SDS011;5956;51.428;6.682;2023-04-06T03:24:54;12.30;;;10.80;;
11797;SDS011;5956;51.428;6.682;2023-04-06T03:27:21;15.00;;;11.17;;
11797;SDS011;5956;51.428;6.682;2023-04-06T03:29:47;11.93;;;10.20;;
11797;SDS011;5956;51.428;6.682;2023-04-06T03:32:14;14.30;;;11.77;;
11797;SDS011;5956;51.428;6.682;2023-04-06T03:34:40;14.13;;;11.77;;
11797;SDS011;5956;51.428;6.682;2023-04-06T03:37:07;14.93;;;11.57;;
11797;SDS011;5956;51.428;6.682;2023-04-06T03:39:35;13.70;;;11.97;;
11797;SDS011;5956;51.428;6.682;2023-04-06T03:42:01;12.30;;;11.00;;
11797;SDS011;5956;51.428;6.682;2023-04-06T03:44:28;18.33;;;11.87;;
11797;SDS011;5956;51.428;6.682;2023-04-06T03:46:54;15.97;;;11.90;;
11797;SDS011;5956;51.428;6.682;2023-04-06T03:49:21;13.40;;;11.80;;
11797;SDS011;5956;51.428;6.682;2023-04-06T03:51:47;15.97;;;12.53;;
11797;SDS011;5956;51.428;6.682;2023-04-06T03:54:14;14.67;;;12.27;;
11797;SDS011;5956;51.428;6.682;2023-04-06T03:56:41;14.87;;;11.83;;
11797;SDS011;5956;51.428;6.682;2023-04-06T03:59:08;12.73;;;11.50;;
11797;SDS011;5956;51.428;6.682;2023-04-06T04:01:34;13.20;;;10.77;;
11797;SDS011;5956;51.428;6.682;2023-04-06T04:04:01;13.50;;;11.10;;
11797;SDS011;5956;51.428;6.682;2023-04-06T04:06:28;12.13;;;10.80;;
11797;SDS011;5956;51.428;6.682;2023-04-06T04:08:54;14.63;;;11.87;;
11797;SDS011;5956;51.428;6.682;2023-04-06T04:11:21;15.47;;;11.37;;
11797;SDS011;5956;51.428;6.682;2023-04-06T04:13:49;14.67;;;12.53;;
11797;SDS011;5956;51.428;6.682;2023-04-06T04:16:15;16.70;;;11.50;;
11797;SDS011;5956;51.428;6.682;2023-04-06T04:18:42;15.33;;;11.77;;
11797;SDS011;5956;51.428;6.682;2023-04-06T04:21:10;14.93;;;11.90;;
11797;SDS011;5956;51.428;6.682;2023-04-06T04:23:36;17.50;;;13.13;;
11797;SDS011;5956;51.428;6.682;2023-04-06T04:26:03;18.93;;;12.83;;
11797;SDS011;5956;51.428;6.682;2023-04-06T04:28:29;13.63;;;11.73;;
11797;SDS011;5956;51.428;6.682;2023-04-06T04:30:57;15.93;;;12.37;;
11797;SDS011;5956;51.428;6.682;2023-04-06T04:33:24;15.93;;;12.03;;
11797;SDS011;5956;51.428;6.682;2023-04-06T04:35:50;19.57;;;13.37;;
11797;SDS011;5956;51.428;6.682;2023-04-06T04:38:17;17.60;;;12.90;;
11797;SDS011;5956;51.428;6.682;2023-04-06T04:40:44;14.67;;;12.87;;
11797;SDS011;5956;51.428;6.682;2023-04-06T04:43:10;14.43;;;11.43;;
11797;SDS011;5956;51.428;6.682;2023-04-06T04:45:37;15.77;;;11.43;;
11797;SDS011;5956;51.428;6.682;2023-04-06T04:48:05;16.90;;;11.00;;
11797;SDS011;5956;51.428;6.682;2023-04-06T04:50:32;15.57;;;11.13;;
11797;SDS011;5956;51.428;6.682;2023-04-06T04:52:59;15.23;;;12.03;;
11797;SDS011;5956;51.428;6.682;2023-04-06T04:55:25;16.00;;;12.17;;
11797;SDS011;5956;51.428;6.682;2023-04-06T04:57:52;18.43;;;12.30;;
11797;SDS011;5956;51.428;6.682;2023-04-06T05:00:18;15.50;;;10.67;;
11797;SDS011;5956;51.428;6.682;2023-04-06T05:02:45;16.60;;;11.00;;
11797;SDS011;5956;51.428;6.682;2023-04-06T05:05:13;18.10;;;11.43;;
11797;SDS011;5956;51.428;6.682;2023-04-06T05:07:40;15.67;;;12.60;;
11797;SDS011;5956;51.428;6.682;2023-04-06T05:10:07;16.53;;;12.23;;
11797;SDS011;5956;51.428;6.682;2023-04-06T05:12:33;16.60;;;11.70;;
11797;SDS011;5956;51.428;6.682;2023-04-06T05:15:00;14.87;;;12.37;;
11797;SDS011;5956;51.428;6.682;2023-04-06T05:17:27;17.27;;;11.37;;
11797;SDS011;5956;51.428;6.682;2023-04-06T05:19:53;16.33;;;11.30;;
11797;SDS011;5956;51.428;6.682;2023-04-06T05:22:21;13.03;;;11.03;;
11797;SDS011;5956;51.428;6.682;2023-04-06T05:24:48;19.53;;;11.17;;
11797;SDS011;5956;51.428;6.682;2023-04-06T05:27:15;16.87;;;11.13;;
11797;SDS011;5956;51.428;6.682;2023-04-06T05:29:41;15.37;;;11.63;;
11797;SDS011;5956;51.428;6.682;2023-04-06T05:32:08;15.30;;;10.43;;
11797;SDS011;5956;51.428;6.682;2023-04-06T05:34:35;13.67;;;10.47;;
11797;SDS011;5956;51.428;6.682;2023-04-06T05:37:01;18.87;;;13.80;;
11797;SDS011;5956;51.428;6.682;2023-04-06T05:39:29;17.93;;;12.03;;
11797;SDS011;5956;51.428;6.682;2023-04-06T05:41:55;13.97;;;10.87;;
11797;SDS011;5956;51.428;6.682;2023-04-06T05:44:22;12.57;;;10.07;;
11797;SDS011;5956;51.428;6.682;2023-04-06T05:46:48;12.50;;;9.97;;
11797;SDS011;5956;51.428;6.682;2023-04-06T05:49:15;11.37;;;9.43;;
11797;SDS011;5956;51.428;6.682;2023-04-06T05:51:41;13.03;;;10.10;;
11797;SDS011;5956;51.428;6.682;2023-04-06T05:54:08;13.33;;;9.90;;
11797;SDS011;5956;51.428;6.682;2023-04-06T05:56:36;10.83;;;9.43;;
11797;SDS011;5956;51.428;6.682;2023-04-06T05:59:02;11.67;;;9.80;;
11797;SDS011;5956;51.428;6.682;2023-04-06T06:01:29;10.47;;;9.37;;
11797;SDS011;5956;51.428;6.682;2023-04-06T06:03:56;14.13;;;8.90;;
11797;SDS011;5956;51.428;6.682;2023-04-06T06:06:22;11.73;;;8.70;;
11797;SDS011;5956;51.428;6.682;2023-04-06T06:08:49;12.03;;;8.30;;
11797;SDS011;5956;51.428;6.682;2023-04-06T06:11:15;10.00;;;8.57;;
11797;SDS011;5956;51.428;6.682;2023-04-06T06:13:43;12.10;;;8.83;;
11797;SDS011;5956;51.428;6.682;2023-04-06T06:16:09;15.27;;;8.50;;
11797;SDS011;5956;51.428;6.682;2023-04-06T06:18:36;13.53;;;8.03;;
11797;SDS011;5956;51.428;6.682;2023-04-06T06:21:02;15.87;;;8.57;;
11797;SDS011;5956;51.428;6.682;2023-04-06T06:23:29;12.27;;;8.47;;
11797;SDS011;5956;51.428;6.682;2023-04-06T06:25:55;12.20;;;8.90;;
11797;SDS011;5956;51.428;6.682;2023-04-06T06:28:23;11.47;;;8.20;;
11797;SDS011;5956;51.428;6.682;2023-04-06T06:30:51;11.97;;;8.30;;
11797;SDS011;5956;51.428;6.682;2023-04-06T06:33:18;13.50;;;8.23;;
11797;SDS011;5956;51.428;6.682;2023-04-06T06:35:44;8.77;;;7.83;;
11797;SDS011;5956;51.428;6.682;2023-04-06T06:38:11;12.53;;;8.30;;
11797;SDS011;5956;51.428;6.682;2023-04-06T06:40:37;10.57;;;8.00;;
11797;SDS011;5956;51.428;6.682;2023-04-06T06:43:04;11.10;;;8.43;;
11797;SDS011;5956;51.428;6.682;2023-04-06T06:45:30;12.87;;;8.23;;
11797;SDS011;5956;51.428;6.682;2023-04-06T06:47:58;13.57;;;8.97;;
11797;SDS011;5956;51.428;6.682;2023-04-06T06:50:25;16.47;;;11.40;;
11797;SDS011;5956;51.428;6.682;2023-04-06T06:52:51;14.40;;;9.43;;
11797;SDS011;5956;51.428;6.682;2023-04-06T06:55:18;10.57;;;8.30;;
11797;SDS011;5956;51.428;6.682;2023-04-06T06:57:45;11.67;;;7.70;;
11797;SDS011;5956;51.428;6.682;2023-04-06T07:00:12;9.60;;;7.60;;
11797;SDS011;5956;51.428;6.682;2023-04-06T07:02:39;14.67;;;9.80;;
11797;SDS011;5956;51.428;6.682;2023-04-06T07:05:07;11.77;;;8.53;;
11797;SDS011;5956;51.428;6.682;2023-04-06T07:07:34;12.50;;;8.30;;
11797;SDS011;5956;51.428;6.682;2023-04-06T07:10:00;9.93;;;7.63;;
11797;SDS011;5956;51.428;6.682;2023-04-06T07:12:27;10.40;;;8.10;;
11797;SDS011;5956;51.428;6.682;2023-04-06T07:14:53;13.90;;;8.57;;
11797;SDS011;5956;51.428;6.682;2023-04-06T07:17:20;10.10;;;7.73;;
11797;SDS011;5956;51.428;6.682;2023-04-06T07:19:46;10.03;;;8.73;;
11797;SDS011;5956;51.428;6.682;2023-04-06T07:22:14;13.43;;;7.83;;
11797;SDS011;5956;51.428;6.682;2023-04-06T07:24:40;10.33;;;8.10;;
11797;SDS011;5956;51.428;6.682;2023-04-06T07:27:07;10.87;;;7.87;;
11797;SDS011;5956;51.428;6.682;2023-04-06T07:29:33;14.43;;;8.80;;
11797;SDS011;5956;51.428;6.682;2023-04-06T07:32:00;11.43;;;8.17;;
11797;SDS011;5956;51.428;6.682;2023-04-06T07:34:27;16.77;;;9.47;;
11797;SDS011;5956;51.428;6.682;2023-04-06T07:36:53;13.17;;;9.57;;
11797;SDS011;5956;51.428;6.682;2023-04-06T07:39:21;11.60;;;8.90;;
11797;SDS011;5956;51.428;6.682;2023-04-06T07:41:48;9.53;;;7.63;;
11797;SDS011;5956;51.428;6.682;2023-04-06T07:44:14;12.90;;;8.63;;
11797;SDS011;5956;51.428;6.682;2023-04-06T07:46:41;11.40;;;8.20;;
11797;SDS011;5956;51.428;6.682;2023-04-06T07:49:07;10.10;;;7.73;;
11797;SDS011;5956;51.428;6.682;2023-04-06T07:51:35;14.43;;;8.60;;
11797;SDS011;5956;51.428;6.682;2023-04-06T07:54:01;11.13;;;9.77;;
11797;SDS011;5956;51.428;6.682;2023-04-06T07:56:29;11.13;;;9.10;;
11797;SDS011;5956;51.428;6.682;2023-04-06T07:58:56;12.70;;;9.60;;
11797;SDS011;5956;51.428;6.682;2023-04-06T08:01:23;16.17;;;11.00;;
11797;SDS011;5956;51.428;6.682;2023-04-06T08:03:50;19.50;;;13.40;;
11797;SDS011;5956;51.428;6.682;2023-04-06T08:06:16;18.53;;;13.13;;
11797;SDS011;5956;51.428;6.682;2023-04-06T08:08:43;17.43;;;11.90;;
11797;SDS011;5956;51.428;6.682;2023-04-06T08:11:09;17.60;;;11.43;;
11797;SDS011;5956;51.428;6.682;2023-04-06T08:13:37;16.60;;;10.40;;
11797;SDS011;5956;51.428;6.682;2023-04-06T08:16:04;14.93;;;10.23;;
11797;SDS011;5956;51.428;6.682;2023-04-06T08:18:31;18.27;;;11.53;;
11797;SDS011;5956;51.428;6.682;2023-04-06T08:20:58;14.67;;;10.80;;
11797;SDS011;5956;51.428;6.682;2023-04-06T08:23:24;14.73;;;11.03;;
11797;SDS011;5956;51.428;6.682;2023-04-06T08:25:51;15.50;;;10.93;;
11797;SDS011;5956;51.428;6.682;2023-04-06T08:28:19;18.37;;;12.57;;
11797;SDS011;5956;51.428;6.682;2023-04-06T08:30:47;18.90;;;12.47;;
11797;SDS011;5956;51.428;6.682;2023-04-06T08:33:13;17.57;;;12.57;;
11797;SDS011;5956;51.428;6.682;2023-04-06T08:35:40;17.80;;;12.77;;
11797;SDS011;5956;51.428;6.682;2023-04-06T08:38:07;19.43;;;13.97;;
11797;SDS011;5956;51.428;6.682;2023-04-06T08:40:35;17.17;;;13.07;;
11797;SDS011;5956;51.428;6.682;2023-04-06T08:43:02;18.33;;;13.07;;
11797;SDS011;5956;51.428;6.682;2023-04-06T08:45:33;16.70;;;12.23;;
11797;SDS011;5956;51.428;6.682;2023-04-06T08:48:01;15.83;;;11.10;;
11797;SDS011;5956;51.428;6.682;2023-04-06T08:50:29;16.30;;;12.13;;
11797;SDS011;5956;51.428;6.682;2023-04-06T08:52:56;12.83;;;11.40;;
11797;SDS011;5956;51.428;6.682;2023-04-06T08:55:23;13.77;;;10.50;;
11797;SDS011;5956;51.428;6.682;2023-04-06T08:57:50;12.10;;;10.03;;
11797;SDS011;5956;51.428;6.682;2023-04-06T09:00:18;11.27;;;10.07;;
11797;SDS011;5956;51.428;6.682;2023-04-06T09:02:45;13.30;;;10.53;;
11797;SDS011;5956;51.428;6.682;2023-04-06T09:05:13;19.07;;;12.10;;
11797;SDS011;5956;51.428;6.682;2023-04-06T09:07:40;12.17;;;10.77;;
11797;SDS011;5956;51.428;6.682;2023-04-06T09:10:07;15.33;;;11.70;;
11797;SDS011;5956;51.428;6.682;2023-04-06T09:12:36;15.63;;;10.77;;
11797;SDS011;5956;51.428;6.682;2023-04-06T09:15:24;13.00;;;10.63;;
11797;SDS011;5956;51.428;6.682;2023-04-06T09:17:57;15.03;;;10.03;;
11797;SDS011;5956;51.428;6.682;2023-04-06T09:20:26;15.53;;;11.30;;
11797;SDS011;5956;51.428;6.682;2023-04-06T09:23:16;13.20;;;10.97;;
11797;SDS011;5956;51.428;6.682;2023-04-06T09:25:46;12.10;;;10.50;;
11797;SDS011;5956;51.428;6.682;2023-04-06T09:28:12;13.90;;;11.13;;
11797;SDS011;5956;51.428;6.682;2023-04-06T09:30:47;15.20;;;12.03;;
11797;SDS011;5956;51.428;6.682;2023-04-06T09:33:13;13.47;;;11.13;;
11797;SDS011;5956;51.428;6.682;2023-04-06T09:35:50;14.10;;;10.53;;
11797;SDS011;5956;51.428;6.682;2023-04-06T09:38:17;13.73;;;10.60;;
11797;SDS011;5956;51.428;6.682;2023-04-06T09:40:50;14.07;;;11.50;;
11797;SDS011;5956;51.428;6.682;2023-04-06T09:43:23;13.67;;;10.63;;
11797;SDS011;5956;51.428;6.682;2023-04-06T09:45:49;14.70;;;11.23;;
11797;SDS011;5956;51.428;6.682;2023-04-06T09:48:16;14.37;;;11.40;;
11797;SDS011;5956;51.428;6.682;2023-04-06T09:50:43;12.87;;;11.50;;
11797;SDS011;5956;51.428;6.682;2023-04-06T09:53:12;15.27;;;11.80;;
11797;SDS011;5956;51.428;6.682;2023-04-06T09:55:40;13.73;;;11.47;;
11797;SDS011;5956;51.428;6.682;2023-04-06T09:58:09;13.57;;;11.80;;
11797;SDS011;5956;51.428;6.682;2023-04-06T10:00:40;12.40;;;11.10;;
11797;SDS011;5956;51.428;6.682;2023-04-06T10:03:10;13.27;;;11.23;;
11797;SDS011;5956;51.428;6.682;2023-04-06T10:05:42;12.23;;;10.97;;
11797;SDS011;5956;51.428;6.682;2023-04-06T10:08:10;13.57;;;11.50;;
11797;SDS011;5956;51.428;6.682;2023-04-06T10:10:38;13.13;;;11.47;;
11797;SDS011;5956;51.428;6.682;2023-04-06T10:13:05;15.73;;;11.77;;
11797;SDS011;5956;51.428;6.682;2023-04-06T10:15:32;14.33;;;11.70;;
11797;SDS011;5956;51.428;6.682;2023-04-06T10:17:59;16.30;;;13.13;;
11797;SDS011;5956;51.428;6.682;2023-04-06T10:20:27;16.03;;;11.63;;
11797;SDS011;5956;51.428;6.682;2023-04-06T10:22:56;15.77;;;12.33;;
11797;SDS011;5956;51.428;6.682;2023-04-06T10:25:26;17.83;;;13.10;;
11797;SDS011;5956;51.428;6.682;2023-04-06T10:27:59;18.20;;;14.37;;
11797;SDS011;5956;51.428;6.682;2023-04-06T10:30:26;18.50;;;13.77;;
11797;SDS011;5956;51.428;6.682;2023-04-06T10:32:54;14.97;;;12.83;;
11797;SDS011;5956;51.428;6.682;2023-04-06T10:35:20;14.57;;;12.77;;
11797;SDS011;5956;51.428;6.682;2023-04-06T10:37:49;19.47;;;13.10;;
11797;SDS011;5956;51.428;6.682;2023-04-06T10:40:19;17.83;;;13.47;;
11797;SDS011;5956;51.428;6.682;2023-04-06T10:42:46;17.13;;;13.10;;
11797;SDS011;5956;51.428;6.682;2023-04-06T10:45:21;16.33;;;12.73;;
11797;SDS011;5956;51.428;6.682;2023-04-06T10:47:48;15.50;;;12.70;;
11797;SDS011;5956;51.428;6.682;2023-04-06T10:50:15;16.07;;;11.93;;
11797;SDS011;5956;51.428;6.682;2023-04-06T10:52:43;17.87;;;13.37;;
11797;SDS011;5956;51.428;6.682;2023-04-06T10:55:10;16.17;;;12.37;;
11797;SDS011;5956;51.428;6.682;2023-04-06T10:57:38;16.73;;;13.20;;
11797;SDS011;5956;51.428;6.682;2023-04-06T11:00:05;16.53;;;13.77;;
11797;SDS011;5956;51.428;6.682;2023-04-06T11:02:34;19.00;;;13.10;;
11797;SDS011;5956;51.428;6.682;2023-04-06T11:05:01;16.00;;;13.27;;
11797;SDS011;5956;51.428;6.682;2023-04-06T11:07:27;15.40;;;12.70;;
11797;SDS011;5956;51.428;6.682;2023-04-06T11:09:55;14.60;;;12.30;;
11797;SDS011;5956;51.428;6.682;2023-04-06T11:12:22;14.07;;;12.40;;
11797;SDS011;5956;51.428;6.682;2023-04-06T11:14:53;16.73;;;13.37;;
11797;SDS011;5956;51.428;6.682;2023-04-06T11:17:25;17.37;;;12.13;;
11797;SDS011;5956;51.428;6.682;2023-04-06T11:19:53;15.80;;;13.17;;
11797;SDS011;5956;51.428;6.682;2023-04-06T11:22:20;21.63;;;14.10;;
11797;SDS011;5956;51.428;6.682;2023-04-06T11:24:46;16.23;;;13.47;;
11797;SDS011;5956;51.428;6.682;2023-04-06T11:27:15;16.53;;;13.30;;
11797;SDS011;5956;51.428;6.682;2023-04-06T11:29:42;18.47;;;14.13;;
11797;SDS011;5956;51.428;6.682;2023-04-06T11:32:08;15.27;;;13.33;;
11797;SDS011;5956;51.428;6.682;2023-04-06T11:34:36;16.40;;;13.27;;
11797;SDS011;5956;51.428;6.682;2023-04-06T11:37:07;17.40;;;13.67;;
11797;SDS011;5956;51.428;6.682;2023-04-06T11:39:37;21.70;;;13.73;;
11797;SDS011;5956;51.428;6.682;2023-04-06T11:42:04;18.47;;;14.10;;
11797;SDS011;5956;51.428;6.682;2023-04-06T11:44:31;17.93;;;14.10;;
11797;SDS011;5956;51.428;6.682;2023-04-06T11:46:58;18.40;;;13.83;;
11797;SDS011;5956;51.428;6.682;2023-04-06T11:49:26;17.17;;;13.27;;
11797;SDS011;5956;51.428;6.682;2023-04-06T11:51:53;18.67;;;12.70;;
11797;SDS011;5956;51.428;6.682;2023-04-06T11:54:30;16.57;;;13.43;;
11797;SDS011;5956;51.428;6.682;2023-04-06T11:56:57;21.90;;;13.70;;
11797;SDS011;5956;51.428;6.682;2023-04-06T11:59:23;16.17;;;13.10;;
11797;SDS011;5956;51.428;6.682;2023-04-06T12:01:50;17.03;;;13.30;;
11797;SDS011;5956;51.428;6.682;2023-04-06T12:04:18;16.03;;;14.13;;
11797;SDS011;5956;51.428;6.682;2023-04-06T12:06:44;14.67;;;13.07;;
11797;SDS011;5956;51.428;6.682;2023-04-06T12:09:11;15.83;;;13.27;;
11797;SDS011;5956;51.428;6.682;2023-04-06T12:11:39;17.37;;;13.40;;
11797;SDS011;5956;51.428;6.682;2023-04-06T12:14:06;17.33;;;13.00;;
11797;SDS011;5956;51.428;6.682;2023-04-06T12:16:32;18.87;;;13.27;;
11797;SDS011;5956;51.428;6.682;2023-04-06T12:18:59;16.30;;;13.67;;
11797;SDS011;5956;51.428;6.682;2023-04-06T12:21:26;17.20;;;13.33;;
11797;SDS011;5956;51.428;6.682;2023-04-06T12:23:53;15.23;;;12.80;;
11797;SDS011;5956;51.428;6.682;2023-04-06T12:26:19;15.50;;;11.60;;
11797;SDS011;5956;51.428;6.682;2023-04-06T12:28:47;15.57;;;13.30;;
11797;SDS011;5956;51.428;6.682;2023-04-06T12:31:14;14.17;;;12.00;;
11797;SDS011;5956;51.428;6.682;2023-04-06T12:33:41;15.43;;;12.37;;
11797;SDS011;5956;51.428;6.682;2023-04-06T12:36:11;15.17;;;11.77;;
11797;SDS011;5956;51.428;6.682;2023-04-06T12:38:38;11.60;;;10.37;;
11797;SDS011;5956;51.428;6.682;2023-04-06T12:41:05;10.73;;;8.83;;
11797;SDS011;5956;51.428;6.682;2023-04-06T12:43:32;11.43;;;10.23;;
11797;SDS011;5956;51.428;6.682;2023-04-06T12:45:59;11.57;;;9.97;;
11797;SDS011;5956;51.428;6.682;2023-04-06T12:48:26;10.90;;;9.73;;
11797;SDS011;5956;51.428;6.682;2023-04-06T12:50:54;12.63;;;9.27;;
11797;SDS011;5956;51.428;6.682;2023-04-06T12:53:20;8.57;;;7.70;;
11797;SDS011;5956;51.428;6.682;2023-04-06T12:55:47;10.10;;;8.40;;
11797;SDS011;5956;51.428;6.682;2023-04-06T12:58:15;13.70;;;11.40;;
11797;SDS011;5956;51.428;6.682;2023-04-06T13:00:42;10.73;;;7.60;;
11797;SDS011;5956;51.428;6.682;2023-04-06T13:03:10;8.77;;;7.30;;
11797;SDS011;5956;51.428;6.682;2023-04-06T13:05:38;7.73;;;7.03;;
11797;SDS011;5956;51.428;6.682;2023-04-06T13:08:09;8.00;;;7.23;;
11797;SDS011;5956;51.428;6.682;2023-04-06T13:10:36;8.43;;;7.63;;
11797;SDS011;5956;51.428;6.682;2023-04-06T13:13:03;9.03;;;7.03;;
11797;SDS011;5956;51.428;6.682;2023-04-06T13:15:29;8.00;;;7.20;;
11797;SDS011;5956;51.428;6.682;2023-04-06T13:17:57;7.93;;;6.67;;
11797;SDS011;5956;51.428;6.682;2023-04-06T13:20:25;8.80;;;6.57;;
11797;SDS011;5956;51.428;6.682;2023-04-06T13:22:53;7.00;;;6.30;;
11797;SDS011;5956;51.428;6.682;2023-04-06T13:25:19;7.13;;;6.33;;
11797;SDS011;5956;51.428;6.682;2023-04-06T13:27:46;6.93;;;6.27;;
11797;SDS011;5956;51.428;6.682;2023-04-06T13:30:13;6.87;;;6.17;;
11797;SDS011;5956;51.428;6.682;2023-04-06T13:32:41;7.47;;;6.67;;
11797;SDS011;5956;51.428;6.682;2023-04-06T13:35:07;9.77;;;6.83;;
11797;SDS011;5956;51.428;6.682;2023-04-06T13:37:36;8.57;;;7.77;;
11797;SDS011;5956;51.428;6.682;2023-04-06T13:40:02;7.80;;;6.87;;
11797;SDS011;5956;51.428;6.682;2023-04-06T13:42:29;7.77;;;6.97;;
11797;SDS011;5956;51.428;6.682;2023-04-06T13:44:56;7.80;;;7.07;;
11797;SDS011;5956;51.428;6.682;2023-04-06T13:47:23;7.40;;;6.70;;
11797;SDS011;5956;51.428;6.682;2023-04-06T13:49:50;8.83;;;7.87;;
11797;SDS011;5956;51.428;6.682;2023-04-06T13:52:17;8.97;;;8.07;;
11797;SDS011;5956;51.428;6.682;2023-04-06T13:54:46;8.90;;;8.00;;
11797;SDS011;5956;51.428;6.682;2023-04-06T13:57:12;9.40;;;7.13;;
11797;SDS011;5956;51.428;6.682;2023-04-06T13:59:39;8.03;;;7.23;;
11797;SDS011;5956;51.428;6.682;2023-04-06T14:02:06;8.13;;;7.33;;
11797;SDS011;5956;51.428;6.682;2023-04-06T14:04:33;8.00;;;7.20;;
11797;SDS011;5956;51.428;6.682;2023-04-06T14:07:00;8.60;;;7.80;;
11797;SDS011;5956;51.428;6.682;2023-04-06T14:09:27;7.67;;;7.00;;
11797;SDS011;5956;51.428;6.682;2023-04-06T14:11:55;9.00;;;7.43;;
11797;SDS011;5956;51.428;6.682;2023-04-06T14:14:22;8.37;;;7.60;;
11797;SDS011;5956;51.428;6.682;2023-04-06T14:16:48;8.27;;;7.20;;
11797;SDS011;5956;51.428;6.682;2023-04-06T14:19:16;12.23;;;8.20;;
11797;SDS011;5956;51.428;6.682;2023-04-06T14:21:43;8.37;;;7.57;;
11797;SDS011;5956;51.428;6.682;2023-04-06T14:24:10;9.73;;;8.73;;
11797;SDS011;5956;51.428;6.682;2023-04-06T14:26:38;9.00;;;8.20;;
11797;SDS011;5956;51.428;6.682;2023-04-06T14:29:08;9.37;;;7.87;;
11797;SDS011;5956;51.428;6.682;2023-04-06T14:31:35;16.70;;;14.43;;
11797;SDS011;5956;51.428;6.682;2023-04-06T14:34:02;9.57;;;8.33;;
11797;SDS011;5956;51.428;6.682;2023-04-06T14:36:29;10.30;;;9.30;;
11797;SDS011;5956;51.428;6.682;2023-04-06T14:39:01;9.80;;;8.80;;
11797;SDS011;5956;51.428;6.682;2023-04-06T14:41:29;9.77;;;8.80;;